PWSweather.com
Personal Weather Stations
Station Observations
KVAGLENALL
West Henrico, Glen Allen, VA 23060-6503

West HenricoGlen Allen, VA 23060-6503

Lat: 37.6554, Lon: -77.5693

Elevation: 273

Station Type: Davis Vantage Pro II

Latest ConditionsUpdated 11:30:18 PM EDT Monday, May 25, 2015
Currently Today's Max Today's Min Today's Average
Temperature 70.2°F21.2°C 83.7°F28.7°C 64.4°F18.0°C 73.8°F23.2°C
Dew Point 58.0°F14.4°C 61.6°F16.4°C 57.0°F13.9°C 58.6°F14.8°C
Winds 1.0 mph S1.6 kmh S 14.0 mph SSW22.5 kmh SSW - 4.9 mph 7.9 kmh
Wind Gusts 3.0 mph4.8 kmh 19.2 mph30.9 kmh - -
Humidity 65% 79% 42% 60%
Pressure 30.23 in1023.7 mb 30.33 in1027.1 mb 30.22 in1023.4 mb -
Hour Temp Dew Point Humidity Winds Wind Gusts Pressure Precip Precip Rate Daily Precip Total
11:30 PM 70.2°F21.2°C 58.0°F14.4°C 65% 1.0 mph S1.6 kmh S 3.0 mph4.8 kmh 30.23 in1023.7 mb 0.00 in0.0 mm 0.00 in0.0 mm 0.00 in0.0 mm
11:15 PM 70.4°F21.3°C 58.2°F14.6°C 65% 1.0 mph S1.6 kmh S 3.0 mph4.8 kmh 30.24 in1024.0 mb 0.00 in0.0 mm 0.00 in0.0 mm 0.00 in0.0 mm
11:00 PM 70.5°F21.4°C 58.2°F14.6°C 65% Calm Calm 3.0 mph4.8 kmh 30.24 in1024.0 mb 0.00 in0.0 mm 0.00 in0.0 mm 0.00 in0.0 mm
10:45 PM 70.9°F21.6°C 58.2°F14.6°C 64% Calm Calm 2.0 mph3.2 kmh 30.25 in1024.4 mb 0.00 in0.0 mm 0.00 in0.0 mm 0.00 in0.0 mm
10:30 PM 71.4°F21.9°C 58.7°F14.8°C 64% 2.0 mph S3.2 kmh S 3.0 mph4.8 kmh 30.25 in1024.4 mb 0.00 in0.0 mm 0.00 in0.0 mm 0.00 in0.0 mm
10:15 PM 71.7°F22.1°C 58.5°F14.7°C 63% 2.0 mph S3.2 kmh S 4.0 mph6.4 kmh 30.24 in1024.0 mb 0.00 in0.0 mm 0.00 in0.0 mm 0.00 in0.0 mm
10:00 PM 71.9°F22.2°C 58.7°F14.8°C 63% Calm Calm 3.0 mph4.8 kmh 30.24 in1024.0 mb 0.00 in0.0 mm 0.00 in0.0 mm 0.00 in0.0 mm
09:45 PM 72.2°F22.3°C 58.5°F14.7°C 62% Calm Calm 3.0 mph4.8 kmh 30.24 in1024.0 mb 0.00 in0.0 mm 0.00 in0.0 mm 0.00 in0.0 mm
09:30 PM 72.6°F22.6°C 58.4°F14.7°C 61% 1.0 mph S1.6 kmh S 1.0 mph1.6 kmh 30.24 in1024.0 mb 0.00 in0.0 mm 0.00 in0.0 mm 0.00 in0.0 mm
09:15 PM 73.4°F23.0°C 58.7°F14.8°C 60% 1.0 mph S1.6 kmh S 1.0 mph1.6 kmh 30.23 in1023.7 mb 0.00 in0.0 mm 0.00 in0.0 mm 0.00 in0.0 mm
09:00 PM 74.5°F23.6°C 58.3°F14.6°C 57% Calm Calm 1.0 mph1.6 kmh 30.23 in1023.7 mb 0.00 in0.0 mm 0.00 in0.0 mm 0.00 in0.0 mm
08:45 PM 76.1°F24.5°C 58.3°F14.6°C 54% 2.0 mph S3.2 kmh S 3.0 mph4.8 kmh 30.22 in1023.4 mb 0.00 in0.0 mm 0.00 in0.0 mm 0.00 in0.0 mm
08:30 PM 76.8°F24.9°C 58.4°F14.7°C 53% Calm Calm 1.0 mph1.6 kmh 30.22 in1023.4 mb 0.00 in0.0 mm 0.00 in0.0 mm 0.00 in0.0 mm
08:15 PM 77.7°F25.4°C 58.2°F14.6°C 51% 7.0 mph SSE11.3 kmh SSE 8.1 mph13.0 kmh 30.22 in1023.4 mb 0.00 in0.0 mm 0.00 in0.0 mm 0.00 in0.0 mm
08:00 PM 78.2°F25.7°C 58.1°F14.5°C 50% 2.0 mph S3.2 kmh S 4.0 mph6.4 kmh 30.22 in1023.4 mb 0.00 in0.0 mm 0.00 in0.0 mm 0.00 in0.0 mm
07:45 PM 78.7°F25.9°C 58.5°F14.7°C 50% 3.0 mph S4.8 kmh S 9.1 mph14.6 kmh 30.22 in1023.4 mb 0.00 in0.0 mm 0.00 in0.0 mm 0.00 in0.0 mm
07:30 PM 79.3°F26.3°C 57.9°F14.4°C 48% 4.0 mph S6.4 kmh S 9.1 mph14.6 kmh 30.22 in1023.4 mb 0.00 in0.0 mm 0.00 in0.0 mm 0.00 in0.0 mm
07:15 PM 79.9°F26.6°C 57.3°F14.1°C 46% Calm Calm 8.1 mph13.0 kmh 30.22 in1023.4 mb 0.00 in0.0 mm 0.00 in0.0 mm 0.00 in0.0 mm
07:00 PM 80.4°F26.9°C 57.1°F13.9°C 45% 7.0 mph S11.3 kmh S 14.1 mph22.7 kmh 30.22 in1023.4 mb 0.00 in0.0 mm 0.00 in0.0 mm 0.00 in0.0 mm
06:45 PM 80.8°F27.1°C 57.5°F14.2°C 45% 3.0 mph S4.8 kmh S 11.1 mph17.9 kmh 30.22 in1023.4 mb 0.00 in0.0 mm 0.00 in0.0 mm 0.00 in0.0 mm
06:30 PM 81.2°F27.3°C 58.4°F14.7°C 46% Calm Calm 4.0 mph6.4 kmh 30.22 in1023.4 mb 0.00 in0.0 mm 0.00 in0.0 mm 0.00 in0.0 mm
06:15 PM 81.7°F27.6°C 57.0°F13.9°C 43% 11.0 mph S17.7 kmh S 17.2 mph27.7 kmh 30.22 in1023.4 mb 0.00 in0.0 mm 0.00 in0.0 mm 0.00 in0.0 mm
06:00 PM 82.1°F27.8°C 57.4°F14.1°C 43% 11.0 mph SSW17.7 kmh SSW 14.1 mph22.7 kmh 30.22 in1023.4 mb 0.00 in0.0 mm 0.00 in0.0 mm 0.00 in0.0 mm
05:45 PM 82.7°F28.2°C 57.9°F14.4°C 43% 9.0 mph S14.5 kmh S 9.1 mph14.6 kmh 30.22 in1023.4 mb 0.00 in0.0 mm 0.00 in0.0 mm 0.00 in0.0 mm
05:30 PM 83.3°F28.5°C 57.8°F14.3°C 42% 3.0 mph NE4.8 kmh NE 12.1 mph19.5 kmh 30.23 in1023.7 mb 0.00 in0.0 mm 0.00 in0.0 mm 0.00 in0.0 mm
05:15 PM 83.5°F28.6°C 58.6°F14.8°C 43% 9.0 mph SSW14.5 kmh SSW 11.1 mph17.9 kmh 30.23 in1023.7 mb 0.00 in0.0 mm 0.00 in0.0 mm 0.00 in0.0 mm
05:00 PM 83.7°F28.7°C 58.1°F14.5°C 42% 11.0 mph S17.7 kmh S 12.1 mph19.5 kmh 30.23 in1023.7 mb 0.00 in0.0 mm 0.00 in0.0 mm 0.00 in0.0 mm
04:45 PM 83.1°F28.4°C 57.6°F14.2°C 42% 3.0 mph S4.8 kmh S 9.1 mph14.6 kmh 30.23 in1023.7 mb 0.00 in0.0 mm 0.00 in0.0 mm 0.00 in0.0 mm
04:30 PM 83.5°F28.6°C 58.0°F14.4°C 42% 3.0 mph S4.8 kmh S 10.1 mph16.3 kmh 30.24 in1024.0 mb 0.00 in0.0 mm 0.00 in0.0 mm 0.00 in0.0 mm
04:15 PM 83.7°F28.7°C 58.1°F14.5°C 42% 7.0 mph S11.3 kmh S 14.1 mph22.7 kmh 30.24 in1024.0 mb 0.00 in0.0 mm 0.00 in0.0 mm 0.00 in0.0 mm
04:00 PM 82.9°F28.3°C 59.4°F15.2°C 45% 2.0 mph SSW3.2 kmh SSW 11.1 mph17.9 kmh 30.24 in1024.0 mb 0.00 in0.0 mm 0.00 in0.0 mm 0.00 in0.0 mm
03:45 PM 82.7°F28.2°C 59.2°F15.1°C 45% 9.0 mph SSW14.5 kmh SSW 9.1 mph14.6 kmh 30.24 in1024.0 mb 0.00 in0.0 mm 0.00 in0.0 mm 0.00 in0.0 mm
03:30 PM 83.1°F28.4°C 58.9°F14.9°C 44% 5.0 mph SW8.0 kmh SW 11.1 mph17.9 kmh 30.24 in1024.0 mb 0.00 in0.0 mm 0.00 in0.0 mm 0.00 in0.0 mm
03:15 PM 82.7°F28.2°C 59.8°F15.4°C 46% 2.0 mph S3.2 kmh S 7.1 mph11.4 kmh 30.24 in1024.0 mb 0.00 in0.0 mm 0.00 in0.0 mm 0.00 in0.0 mm
03:00 PM 81.9°F27.7°C 59.1°F15.1°C 46% 4.0 mph S6.4 kmh S 18.2 mph29.3 kmh 30.25 in1024.4 mb 0.00 in0.0 mm 0.00 in0.0 mm 0.00 in0.0 mm
02:45 PM 81.9°F27.7°C 58.5°F14.7°C 45% 8.0 mph SSW12.9 kmh SSW 19.2 mph30.9 kmh 30.25 in1024.4 mb 0.00 in0.0 mm 0.00 in0.0 mm 0.00 in0.0 mm
02:30 PM 82.1°F27.8°C 58.6°F14.8°C 45% 8.0 mph SSW12.9 kmh SSW 14.1 mph22.7 kmh 30.26 in1024.7 mb 0.00 in0.0 mm 0.00 in0.0 mm 0.00 in0.0 mm
02:15 PM 81.7°F27.6°C 58.9°F14.9°C 46% 9.0 mph SSW14.5 kmh SSW 12.1 mph19.5 kmh 30.26 in1024.7 mb 0.00 in0.0 mm 0.00 in0.0 mm 0.00 in0.0 mm
02:00 PM 81.0°F27.2°C 60.6°F15.9°C 50% 5.0 mph S8.0 kmh S 17.2 mph27.7 kmh 30.27 in1025.1 mb 0.00 in0.0 mm 0.00 in0.0 mm 0.00 in0.0 mm
01:45 PM 81.3°F27.4°C 59.1°F15.1°C 47% 12.0 mph S19.3 kmh S 17.2 mph27.7 kmh 30.28 in1025.4 mb 0.00 in0.0 mm 0.00 in0.0 mm 0.00 in0.0 mm
01:30 PM 80.6°F27.0°C 60.3°F15.7°C 50% 14.0 mph SSW22.5 kmh SSW 16.2 mph26.1 kmh 30.28 in1025.4 mb 0.00 in0.0 mm 0.00 in0.0 mm 0.00 in0.0 mm
01:15 PM 81.0°F27.2°C 60.6°F15.9°C 50% 8.0 mph S12.9 kmh S 14.1 mph22.7 kmh 30.29 in1025.7 mb 0.00 in0.0 mm 0.00 in0.0 mm 0.00 in0.0 mm
01:00 PM 80.4°F26.9°C 60.1°F15.6°C 50% 9.0 mph S14.5 kmh S 11.1 mph17.9 kmh 30.29 in1025.7 mb 0.00 in0.0 mm 0.00 in0.0 mm 0.00 in0.0 mm
12:45 PM 80.2°F26.8°C 61.0°F16.1°C 52% 4.0 mph S6.4 kmh S 13.1 mph21.1 kmh 30.29 in1025.7 mb 0.00 in0.0 mm 0.00 in0.0 mm 0.00 in0.0 mm
12:30 PM 80.4°F26.9°C 60.1°F15.6°C 50% 7.0 mph SW11.3 kmh SW 10.1 mph16.3 kmh 30.30 in1026.1 mb 0.00 in0.0 mm 0.00 in0.0 mm 0.00 in0.0 mm
12:15 PM 80.2°F26.8°C 59.9°F15.5°C 50% 8.0 mph S12.9 kmh S 19.2 mph30.9 kmh 30.30 in1026.1 mb 0.00 in0.0 mm 0.00 in0.0 mm 0.00 in0.0 mm
12:00 PM 79.9°F26.6°C 60.7°F15.9°C 52% 5.0 mph SSE8.0 kmh SSE 9.1 mph14.6 kmh 30.30 in1026.1 mb 0.00 in0.0 mm 0.00 in0.0 mm 0.00 in0.0 mm
11:45 AM 78.9°F26.1°C 59.3°F15.2°C 51% 4.0 mph S6.4 kmh S 15.1 mph24.3 kmh 30.31 in1026.4 mb 0.00 in0.0 mm 0.00 in0.0 mm 0.00 in0.0 mm
11:30 AM 79.1°F26.2°C 60.5°F15.8°C 53% 12.0 mph S19.3 kmh S 17.2 mph27.7 kmh 30.31 in1026.4 mb 0.00 in0.0 mm 0.00 in0.0 mm 0.00 in0.0 mm
11:15 AM 78.2°F25.7°C 60.2°F15.7°C 54% 7.0 mph S11.3 kmh S 9.1 mph14.6 kmh 30.31 in1026.4 mb 0.00 in0.0 mm 0.00 in0.0 mm 0.00 in0.0 mm
11:00 AM 78.2°F25.7°C 60.8°F16.0°C 55% 8.0 mph S12.9 kmh S 10.1 mph16.3 kmh 30.32 in1026.8 mb 0.00 in0.0 mm 0.00 in0.0 mm 0.00 in0.0 mm
10:45 AM 77.3°F25.2°C 59.4°F15.2°C 54% Calm Calm 9.1 mph14.6 kmh 30.32 in1026.8 mb 0.00 in0.0 mm 0.00 in0.0 mm 0.00 in0.0 mm
10:30 AM 76.9°F24.9°C 59.0°F15.0°C 54% 7.0 mph S11.3 kmh S 16.2 mph26.1 kmh 30.32 in1026.8 mb 0.00 in0.0 mm 0.00 in0.0 mm 0.00 in0.0 mm
10:15 AM 76.2°F24.6°C 60.9°F16.1°C 59% 8.0 mph SSW12.9 kmh SSW 8.1 mph13.0 kmh 30.32 in1026.8 mb 0.00 in0.0 mm 0.00 in0.0 mm 0.00 in0.0 mm
10:00 AM 75.5°F24.2°C 61.6°F16.4°C 62% 2.0 mph SW3.2 kmh SW 7.1 mph11.4 kmh 30.32 in1026.8 mb 0.00 in0.0 mm 0.00 in0.0 mm 0.00 in0.0 mm
09:45 AM 75.0°F23.9°C 61.6°F16.4°C 63% 5.0 mph S8.0 kmh S 5.1 mph8.2 kmh 30.33 in1027.1 mb 0.00 in0.0 mm 0.00 in0.0 mm 0.00 in0.0 mm
09:30 AM 73.8°F23.2°C 61.4°F16.3°C 65% 4.0 mph SW6.4 kmh SW 9.1 mph14.6 kmh 30.33 in1027.1 mb 0.00 in0.0 mm 0.00 in0.0 mm 0.00 in0.0 mm
09:15 AM 72.9°F22.7°C 61.0°F16.1°C 66% 5.0 mph WSW8.0 kmh WSW 8.1 mph13.0 kmh 30.33 in1027.1 mb 0.00 in0.0 mm 0.00 in0.0 mm 0.00 in0.0 mm
09:00 AM 72.1°F22.3°C 61.0°F16.1°C 68% 1.0 mph SW1.6 kmh SW 5.1 mph8.2 kmh 30.33 in1027.1 mb 0.00 in0.0 mm 0.00 in0.0 mm 0.00 in0.0 mm
08:45 AM 70.7°F21.5°C 60.5°F15.8°C 70% 6.0 mph S9.7 kmh S 6.1 mph9.8 kmh 30.32 in1026.8 mb 0.00 in0.0 mm 0.00 in0.0 mm 0.00 in0.0 mm
08:30 AM 69.0°F20.6°C 59.3°F15.2°C 71% 8.0 mph SSW12.9 kmh SSW 12.1 mph19.5 kmh 30.32 in1026.8 mb 0.00 in0.0 mm 0.00 in0.0 mm 0.00 in0.0 mm
08:15 AM 67.7°F19.8°C 59.6°F15.3°C 75% 4.0 mph S6.4 kmh S 5.1 mph8.2 kmh 30.32 in1026.8 mb 0.00 in0.0 mm 0.00 in0.0 mm 0.00 in0.0 mm
08:00 AM 66.7°F19.3°C 59.4°F15.2°C 77% 7.0 mph SW11.3 kmh SW 8.1 mph13.0 kmh 30.32 in1026.8 mb 0.00 in0.0 mm 0.00 in0.0 mm 0.00 in0.0 mm
07:45 AM 65.9°F18.8°C 59.0°F15.0°C 78% 6.0 mph SSW9.7 kmh SSW 8.1 mph13.0 kmh 30.32 in1026.8 mb 0.00 in0.0 mm 0.00 in0.0 mm 0.00 in0.0 mm
07:30 AM 65.3°F18.5°C 58.7°F14.8°C 79% 6.0 mph S9.7 kmh S 8.1 mph13.0 kmh 30.32 in1026.8 mb 0.00 in0.0 mm 0.00 in0.0 mm 0.00 in0.0 mm
07:15 AM 64.9°F18.3°C 58.3°F14.6°C 79% 6.0 mph SSW9.7 kmh SSW 10.1 mph16.3 kmh 30.32 in1026.8 mb 0.00 in0.0 mm 0.00 in0.0 mm 0.00 in0.0 mm
07:00 AM 64.6°F18.1°C 58.1°F14.5°C 79% 7.0 mph SSW11.3 kmh SSW 7.1 mph11.4 kmh 30.31 in1026.4 mb 0.00 in0.0 mm 0.00 in0.0 mm 0.00 in0.0 mm
06:45 AM 64.4°F18.0°C 57.9°F14.4°C 79% 7.0 mph SSW11.3 kmh SSW 11.1 mph17.9 kmh 30.31 in1026.4 mb 0.00 in0.0 mm 0.00 in0.0 mm 0.00 in0.0 mm
06:30 AM 64.4°F18.0°C 57.9°F14.4°C 79% 5.0 mph SSW8.0 kmh SSW 10.1 mph16.3 kmh 30.30 in1026.1 mb 0.00 in0.0 mm 0.00 in0.0 mm 0.00 in0.0 mm
06:15 AM 64.4°F18.0°C 57.9°F14.4°C 79% 7.0 mph SSW11.3 kmh SSW 7.1 mph11.4 kmh 30.30 in1026.1 mb 0.00 in0.0 mm 0.00 in0.0 mm 0.00 in0.0 mm
06:00 AM 64.8°F18.2°C 57.9°F14.4°C 78% 4.0 mph WSW6.4 kmh WSW 15.1 mph24.3 kmh 30.30 in1026.1 mb 0.00 in0.0 mm 0.00 in0.0 mm 0.00 in0.0 mm
05:45 AM 64.9°F18.3°C 57.6°F14.2°C 77% 5.0 mph SW8.0 kmh SW 9.1 mph14.6 kmh 30.29 in1025.7 mb 0.00 in0.0 mm 0.00 in0.0 mm 0.00 in0.0 mm
05:30 AM 65.1°F18.4°C 57.8°F14.3°C 77% 8.0 mph SSW12.9 kmh SSW 11.1 mph17.9 kmh 30.29 in1025.7 mb 0.00 in0.0 mm 0.00 in0.0 mm 0.00 in0.0 mm
05:15 AM 65.1°F18.4°C 57.8°F14.3°C 77% 8.0 mph S12.9 kmh S 9.1 mph14.6 kmh 30.28 in1025.4 mb 0.00 in0.0 mm 0.00 in0.0 mm 0.00 in0.0 mm
05:00 AM 64.9°F18.3°C 57.6°F14.2°C 77% 6.0 mph S9.7 kmh S 10.1 mph16.3 kmh 30.28 in1025.4 mb 0.00 in0.0 mm 0.00 in0.0 mm 0.00 in0.0 mm
04:45 AM 64.9°F18.3°C 57.6°F14.2°C 77% 7.0 mph SW11.3 kmh SW 7.1 mph11.4 kmh 30.28 in1025.4 mb 0.00 in0.0 mm 0.00 in0.0 mm 0.00 in0.0 mm
04:30 AM 64.9°F18.3°C 57.3°F14.1°C 76% 6.0 mph SSW9.7 kmh SSW 7.1 mph11.4 kmh 30.28 in1025.4 mb 0.00 in0.0 mm 0.00 in0.0 mm 0.00 in0.0 mm
04:15 AM 65.3°F18.5°C 57.6°F14.2°C 76% 6.0 mph S9.7 kmh S 7.1 mph11.4 kmh 30.28 in1025.4 mb 0.00 in0.0 mm 0.00 in0.0 mm 0.00 in0.0 mm
04:00 AM 65.6°F18.7°C 57.6°F14.2°C 75% 4.0 mph SE6.4 kmh SE 7.1 mph11.4 kmh 30.28 in1025.4 mb 0.00 in0.0 mm 0.00 in0.0 mm 0.00 in0.0 mm
03:45 AM 65.7°F18.7°C 57.3°F14.1°C 74% 7.0 mph SSW11.3 kmh SSW 8.1 mph13.0 kmh 30.28 in1025.4 mb 0.00 in0.0 mm 0.00 in0.0 mm 0.00 in0.0 mm
03:30 AM 66.1°F18.9°C 57.3°F14.1°C 73% 2.0 mph SW3.2 kmh SW 4.0 mph6.4 kmh 30.28 in1025.4 mb 0.00 in0.0 mm 0.00 in0.0 mm 0.00 in0.0 mm
03:15 AM 66.4°F19.1°C 57.2°F14.0°C 72% 7.0 mph SSW11.3 kmh SSW 8.1 mph13.0 kmh 30.28 in1025.4 mb 0.00 in0.0 mm 0.00 in0.0 mm 0.00 in0.0 mm
03:00 AM 66.7°F19.3°C 57.5°F14.2°C 72% 3.0 mph S4.8 kmh S 5.1 mph8.2 kmh 30.28 in1025.4 mb 0.00 in0.0 mm 0.00 in0.0 mm 0.00 in0.0 mm
02:45 AM 66.7°F19.3°C 57.1°F13.9°C 71% 3.0 mph SE4.8 kmh SE 7.1 mph11.4 kmh 30.28 in1025.4 mb 0.00 in0.0 mm 0.00 in0.0 mm 0.00 in0.0 mm
02:30 AM 66.7°F19.3°C 57.1°F13.9°C 71% 6.0 mph S9.7 kmh S 7.1 mph11.4 kmh 30.28 in1025.4 mb 0.00 in0.0 mm 0.00 in0.0 mm 0.00 in0.0 mm
02:15 AM 66.9°F19.4°C 57.3°F14.1°C 71% 1.0 mph S1.6 kmh S 6.1 mph9.8 kmh 30.28 in1025.4 mb 0.00 in0.0 mm 0.00 in0.0 mm 0.00 in0.0 mm
02:00 AM 67.0°F19.4°C 57.4°F14.1°C 71% 3.0 mph S4.8 kmh S 4.0 mph6.4 kmh 30.28 in1025.4 mb 0.00 in0.0 mm 0.00 in0.0 mm 0.00 in0.0 mm
01:45 AM 67.5°F19.7°C 57.5°F14.2°C 70% 2.0 mph S3.2 kmh S 6.1 mph9.8 kmh 30.28 in1025.4 mb 0.00 in0.0 mm 0.00 in0.0 mm 0.00 in0.0 mm
01:30 AM 68.0°F20.0°C 57.5°F14.2°C 69% 6.0 mph SSW9.7 kmh SSW 6.1 mph9.8 kmh 30.28 in1025.4 mb 0.00 in0.0 mm 0.00 in0.0 mm 0.00 in0.0 mm
01:15 AM 68.0°F20.0°C 57.5°F14.2°C 69% 5.0 mph S8.0 kmh S 8.1 mph13.0 kmh 30.28 in1025.4 mb 0.00 in0.0 mm 0.00 in0.0 mm 0.00 in0.0 mm
01:00 AM 68.0°F20.0°C 57.5°F14.2°C 69% 4.0 mph S6.4 kmh S 9.1 mph14.6 kmh 30.28 in1025.4 mb 0.00 in0.0 mm 0.00 in0.0 mm 0.00 in0.0 mm
12:45 AM 67.4°F19.7°C 57.4°F14.1°C 70% 1.0 mph S1.6 kmh S 7.1 mph11.4 kmh 30.28 in1025.4 mb 0.00 in0.0 mm 0.00 in0.0 mm 0.00 in0.0 mm
12:30 AM 67.0°F19.4°C 57.4°F14.1°C 71% 2.0 mph S3.2 kmh S 5.1 mph8.2 kmh 30.29 in1025.7 mb 0.00 in0.0 mm 0.00 in0.0 mm 0.00 in0.0 mm
12:15 AM 67.2°F19.6°C 57.6°F14.2°C 71% 1.0 mph S1.6 kmh S 2.0 mph3.2 kmh 30.29 in1025.7 mb 0.00 in0.0 mm 0.00 in0.0 mm 0.00 in0.0 mm
12:00 AM 67.4°F19.7°C 57.8°F14.3°C 71% 1.0 mph S1.6 kmh S 3.0 mph4.8 kmh 30.30 in1026.1 mb 0.00 in0.0 mm 0.00 in0.0 mm 0.00 in0.0 mm